createdAt,value
2022-08-21T00:02:21.336Z,1.77
2022-08-21T00:04:57.237Z,0.68
2022-08-21T00:07:25.921Z,1.83
2022-08-21T00:09:54.549Z,1.38
2022-08-21T00:12:24.231Z,0.32
2022-08-21T00:14:51.414Z,1.13
2022-08-21T00:17:23.993Z,4.95
2022-08-21T00:19:50.927Z,0.63
2022-08-21T00:22:18.395Z,0.68
2022-08-21T00:24:45.370Z,1.77
2022-08-21T00:27:12.326Z,0.98
2022-08-21T00:29:39.868Z,0.55
2022-08-21T00:32:06.912Z,10.00
2022-08-21T00:34:33.991Z,12.23
2022-08-21T00:37:00.921Z,14.60
2022-08-21T00:39:27.818Z,12.27
2022-08-21T00:41:54.712Z,13.65
2022-08-21T00:44:21.594Z,11.13
2022-08-21T00:46:48.494Z,13.68
2022-08-21T00:49:15.514Z,11.27
2022-08-21T00:51:53.131Z,13.68
2022-08-21T00:54:23.514Z,13.80
2022-08-21T00:56:55.999Z,11.60
2022-08-21T00:59:27.679Z,11.30
2022-08-21T01:01:54.707Z,11.30
2022-08-21T01:04:23.434Z,12.85
2022-08-21T01:06:52.630Z,12.52
2022-08-21T01:09:20.095Z,12.20
2022-08-21T01:11:47.734Z,11.38
2022-08-21T01:14:15.939Z,10.57
2022-08-21T01:16:46.390Z,9.13
2022-08-21T01:19:15.193Z,11.50
2022-08-21T01:21:43.873Z,8.82
2022-08-21T01:24:12.168Z,9.70
2022-08-21T01:26:39.507Z,10.32
2022-08-21T01:29:31.744Z,11.80
2022-08-21T01:32:00.566Z,11.00
2022-08-21T01:34:27.439Z,10.10
2022-08-21T01:36:54.385Z,9.48
2022-08-21T01:39:21.531Z,10.15
2022-08-21T01:41:48.426Z,9.68
2022-08-21T01:44:15.316Z,8.77
2022-08-21T01:46:42.247Z,9.55
2022-08-21T01:49:09.679Z,8.85
2022-08-21T01:51:36.760Z,10.80
2022-08-21T01:54:03.765Z,8.38
2022-08-21T01:56:44.993Z,9.30
2022-08-21T01:59:12.639Z,9.43
2022-08-21T02:01:42.367Z,5.28
2022-08-21T02:04:10.973Z,0.40
2022-08-21T02:06:39.109Z,1.63
2022-08-21T02:09:08.029Z,0.82
2022-08-21T02:11:36.175Z,0.82
2022-08-21T02:14:03.291Z,0.73
2022-08-21T02:16:30.161Z,0.77
2022-08-21T02:18:57.501Z,2.28
2022-08-21T02:21:24.616Z,1.95
2022-08-21T02:23:51.482Z,2.15
2022-08-21T02:26:18.955Z,2.05
2022-08-21T02:28:46.044Z,0.88
2022-08-21T02:31:12.976Z,1.02
2022-08-21T02:33:40.425Z,12.38
2022-08-21T02:36:08.676Z,1.38
2022-08-21T02:38:40.862Z,0.90
2022-08-21T02:41:11.222Z,1.52
2022-08-21T02:43:38.164Z,0.88
2022-08-21T02:46:06.713Z,1.02
2022-08-21T02:48:35.059Z,1.00
2022-08-21T02:51:06.088Z,4.93
2022-08-21T02:53:33.719Z,1.63
2022-08-21T02:56:02.693Z,1.20
2022-08-21T02:58:35.215Z,0.45
2022-08-21T03:01:02.383Z,0.80
2022-08-21T03:03:30.358Z,11.77
2022-08-21T03:05:57.902Z,14.05
2022-08-21T03:08:27.595Z,14.82
2022-08-21T03:10:55.026Z,10.50
2022-08-21T03:13:22.657Z,15.02
2022-08-21T03:15:50.728Z,12.05
2022-08-21T03:18:18.742Z,16.35
2022-08-21T03:20:46.488Z,13.48
2022-08-21T03:23:18.539Z,16.08
2022-08-21T03:25:48.935Z,12.75
2022-08-21T03:28:20.039Z,17.52
2022-08-21T03:30:49.709Z,11.55
2022-08-21T03:33:17.149Z,13.20
2022-08-21T03:35:53.479Z,12.60
2022-08-21T03:38:25.881Z,10.55
2022-08-21T03:40:54.063Z,11.95
2022-08-21T03:43:21.216Z,12.60
2022-08-21T03:45:48.383Z,11.70
2022-08-21T03:48:15.632Z,15.15
2022-08-21T03:50:44.276Z,13.40
2022-08-21T03:53:17.449Z,12.38
2022-08-21T03:55:50.068Z,14.98
2022-08-21T03:58:18.719Z,13.60
2022-08-21T04:00:47.827Z,13.98
2022-08-21T04:03:14.989Z,15.05
2022-08-21T04:05:42.213Z,14.88
2022-08-21T04:08:09.802Z,11.43
2022-08-21T04:10:39.406Z,14.20
2022-08-21T04:13:08.146Z,14.68
2022-08-21T04:15:35.576Z,12.07
2022-08-21T04:18:02.792Z,13.43
2022-08-21T04:20:29.722Z,13.43
2022-08-21T04:22:57.521Z,12.23
2022-08-21T04:25:26.572Z,10.10
2022-08-21T04:27:54.177Z,15.27
2022-08-21T04:30:21.337Z,13.27
2022-08-21T04:32:55.286Z,13.50
2022-08-21T04:35:24.842Z,14.27
2022-08-21T04:37:51.946Z,14.68
2022-08-21T04:40:20.519Z,15.40
2022-08-21T04:42:56.229Z,14.10
2022-08-21T04:45:29.889Z,15.63
2022-08-21T04:47:59.358Z,15.98
2022-08-21T04:50:40.564Z,14.10
2022-08-21T04:53:13.156Z,13.02
2022-08-21T04:55:41.810Z,13.90
2022-08-21T04:58:12.310Z,14.10
2022-08-21T05:00:39.879Z,13.63
2022-08-21T05:03:08.849Z,16.63
2022-08-21T05:05:36.065Z,15.98
2022-08-21T05:08:04.359Z,11.60
2022-08-21T05:10:32.557Z,13.38
2022-08-21T05:13:01.589Z,13.98
2022-08-21T05:15:28.516Z,17.42
2022-08-21T05:18:01.058Z,15.77
2022-08-21T05:20:29.037Z,15.00
2022-08-21T05:22:56.217Z,16.90
2022-08-21T05:25:23.868Z,15.63
2022-08-21T05:27:52.256Z,17.15
2022-08-21T05:30:20.484Z,14.23
2022-08-21T05:32:48.910Z,14.93
2022-08-21T05:35:16.223Z,15.90
2022-08-21T05:37:43.224Z,13.40
2022-08-21T05:40:20.970Z,15.27
2022-08-21T05:42:54.364Z,15.07
2022-08-21T05:45:42.969Z,13.35
2022-08-21T05:48:14.002Z,12.85
2022-08-21T05:50:41.818Z,16.05
2022-08-21T05:53:10.740Z,12.68
2022-08-21T05:55:42.767Z,13.40
2022-08-21T05:58:13.062Z,14.10
2022-08-21T06:00:40.504Z,12.23
2022-08-21T06:03:12.766Z,11.55
2022-08-21T06:05:39.973Z,14.90
2022-08-21T06:08:06.924Z,10.60
2022-08-21T06:10:33.909Z,13.35
2022-08-21T06:13:01.053Z,10.35
2022-08-21T06:15:28.367Z,11.52
2022-08-21T06:17:55.823Z,9.93
2022-08-21T06:20:23.621Z,11.05
2022-08-21T06:22:50.557Z,10.63
2022-08-21T06:25:17.744Z,10.20
2022-08-21T06:27:44.973Z,10.55
2022-08-21T06:30:12.352Z,10.98
2022-08-21T06:32:39.670Z,11.70
2022-08-21T06:35:08.044Z,11.25
2022-08-21T06:37:34.964Z,11.07
2022-08-21T06:40:02.461Z,12.07
2022-08-21T06:42:29.502Z,11.68
2022-08-21T06:44:57.956Z,12.65
2022-08-21T06:47:24.905Z,10.13
2022-08-21T06:49:51.808Z,9.05
2022-08-21T06:52:18.747Z,10.45
2022-08-21T06:54:45.691Z,9.82
2022-08-21T06:57:12.589Z,10.32
2022-08-21T06:59:39.587Z,9.88
2022-08-21T07:02:06.501Z,10.80
2022-08-21T07:04:33.387Z,10.15
2022-08-21T07:07:00.490Z,9.38
2022-08-21T07:09:27.837Z,9.25
2022-08-21T07:11:56.793Z,10.85
2022-08-21T07:14:23.957Z,12.40
2022-08-21T07:16:52.159Z,11.90
2022-08-21T07:19:19.499Z,12.40
2022-08-21T07:21:47.499Z,12.25
2022-08-21T07:24:14.917Z,11.82
2022-08-21T07:26:42.128Z,10.77
2022-08-21T07:29:09.380Z,11.43
2022-08-21T07:31:36.302Z,11.18
2022-08-21T07:34:03.331Z,13.40
2022-08-21T07:36:30.190Z,12.05
2022-08-21T07:39:00.360Z,11.60
2022-08-21T07:41:30.139Z,15.27
2022-08-21T07:44:00.570Z,14.55
2022-08-21T07:46:28.486Z,13.13
2022-08-21T07:48:55.386Z,14.57
2022-08-21T07:51:26.992Z,16.17
2022-08-21T07:53:56.228Z,17.48
2022-08-21T07:56:23.746Z,18.27
2022-08-21T07:58:50.837Z,15.48
2022-08-21T08:01:18.093Z,13.45
2022-08-21T08:03:46.218Z,18.58
2022-08-21T08:06:13.677Z,16.65
2022-08-21T08:08:42.148Z,13.13
2022-08-21T08:11:13.291Z,14.63
2022-08-21T08:13:51.733Z,15.63
2022-08-21T08:16:19.880Z,17.13
2022-08-21T08:18:47.265Z,17.33
2022-08-21T08:21:16.135Z,15.85
2022-08-21T08:23:45.281Z,14.75
2022-08-21T08:26:12.595Z,13.85
2022-08-21T08:28:39.679Z,15.15
2022-08-21T08:31:06.603Z,10.77
2022-08-21T08:33:33.490Z,12.52
2022-08-21T08:36:04.699Z,12.93
2022-08-21T08:38:35.082Z,12.32
2022-08-21T08:41:14.005Z,9.73
2022-08-21T08:43:45.318Z,12.43
2022-08-21T08:46:31.469Z,10.73
2022-08-21T08:49:10.108Z,12.20
2022-08-21T08:51:53.328Z,8.50
2022-08-21T08:54:45.518Z,9.57
2022-08-21T08:57:18.758Z,9.20
2022-08-21T08:59:50.401Z,8.95
2022-08-21T09:02:22.094Z,9.98
2022-08-21T09:04:51.158Z,8.50
2022-08-21T09:07:41.276Z,9.07
2022-08-21T09:10:37.261Z,7.18
2022-08-21T09:13:25.026Z,9.32
2022-08-21T09:16:35.479Z,7.05
2022-08-21T09:19:28.753Z,11.80
2022-08-21T09:22:10.660Z,12.20
2022-08-21T09:24:51.385Z,10.15
2022-08-21T09:27:20.437Z,7.78
2022-08-21T09:29:51.946Z,10.43
2022-08-21T09:32:37.202Z,9.10
2022-08-21T09:35:22.101Z,11.10
2022-08-21T09:38:03.455Z,6.78
2022-08-21T09:44:30.441Z,12.75
2022-08-21T09:50:38.181Z,11.85
2022-08-21T09:53:05.636Z,10.73
2022-08-21T09:56:08.369Z,1.23
2022-08-21T10:02:30.482Z,0.55
2022-08-21T10:05:29.637Z,1.00
2022-08-21T10:07:56.633Z,0.45
2022-08-21T10:10:37.835Z,0.43
2022-08-21T10:13:50.164Z,0.77
2022-08-21T10:16:31.864Z,0.52
2022-08-21T10:19:16.836Z,1.42
2022-08-21T10:21:55.734Z,0.13
2022-08-21T10:24:46.637Z,1.13
2022-08-21T10:27:13.503Z,0.85
2022-08-21T10:30:09.723Z,0.20
2022-08-21T10:33:06.189Z,0.55
2022-08-21T10:36:03.267Z,0.65
2022-08-21T10:39:23.446Z,0.20
2022-08-21T10:42:36.774Z,0.88
2022-08-21T10:45:30.259Z,0.43
2022-08-21T10:48:09.021Z,0.40
2022-08-21T10:50:52.956Z,4.80
2022-08-21T10:54:00.364Z,7.70
2022-08-21T10:56:32.027Z,4.82
2022-08-21T10:59:16.965Z,5.40
2022-08-21T11:01:59.770Z,8.07
2022-08-21T11:04:53.285Z,6.57
2022-08-21T11:07:30.683Z,6.50
2022-08-21T11:10:06.601Z,6.55
2022-08-21T11:12:43.635Z,7.43
2022-08-21T11:15:56.591Z,7.55
2022-08-21T11:18:27.458Z,6.80
2022-08-21T11:21:24.927Z,8.07
2022-08-21T11:24:05.727Z,7.22
2022-08-21T11:26:52.422Z,6.68
2022-08-21T11:29:27.861Z,7.90
2022-08-21T11:32:12.487Z,7.60
2022-08-21T11:35:18.012Z,8.68
2022-08-21T11:37:56.674Z,6.88
2022-08-21T11:40:40.854Z,8.18
2022-08-21T11:43:13.281Z,8.63
2022-08-21T11:45:50.218Z,8.73
2022-08-21T11:48:35.874Z,7.05
2022-08-21T11:51:08.589Z,8.32
2022-08-21T11:53:54.025Z,6.00
2022-08-21T11:56:38.265Z,7.35
2022-08-21T11:59:12.244Z,6.18
2022-08-21T12:01:44.096Z,6.22
2022-08-21T12:04:42.802Z,6.40
2022-08-21T12:07:29.540Z,8.13
2022-08-21T12:09:58.370Z,7.13
2022-08-21T12:12:30.806Z,5.47
2022-08-21T12:15:18.231Z,9.27
2022-08-21T12:18:02.989Z,7.10
2022-08-21T12:20:49.996Z,9.05
2022-08-21T12:23:28.853Z,7.43
2022-08-21T12:26:13.959Z,9.52
2022-08-21T12:28:41.500Z,13.75
2022-08-21T12:31:24.383Z,10.90
2022-08-21T12:33:55.681Z,8.88
2022-08-21T12:36:38.815Z,9.48
2022-08-21T12:39:12.589Z,6.65
2022-08-21T12:41:50.935Z,7.78
2022-08-21T12:44:24.350Z,8.27
2022-08-21T12:47:06.367Z,7.70
2022-08-21T12:49:36.041Z,6.35
2022-08-21T12:52:07.375Z,8.40
2022-08-21T12:54:44.955Z,8.27
2022-08-21T12:57:24.002Z,9.00
2022-08-21T12:59:56.404Z,6.57
2022-08-21T13:02:36.517Z,9.68
2022-08-21T13:05:06.424Z,8.77
2022-08-21T13:07:36.648Z,4.85
2022-08-21T13:10:17.550Z,5.60
2022-08-21T13:12:46.170Z,5.47
2022-08-21T13:15:14.618Z,9.13
2022-08-21T13:17:49.600Z,8.82
2022-08-21T13:20:26.412Z,7.25
2022-08-21T13:22:53.399Z,8.40
2022-08-21T13:25:22.440Z,7.78
2022-08-21T13:28:11.853Z,8.55
2022-08-21T13:30:54.281Z,6.18
2022-08-21T13:33:37.543Z,6.50
2022-08-21T13:36:25.991Z,5.65
2022-08-21T13:38:55.266Z,8.38
2022-08-21T13:41:35.029Z,8.23
2022-08-21T13:44:07.086Z,11.95
2022-08-21T13:46:36.827Z,7.90
2022-08-21T13:49:07.016Z,8.73
2022-08-21T13:51:34.856Z,9.05
2022-08-21T13:54:02.297Z,6.53
2022-08-21T13:56:42.744Z,10.70
2022-08-21T13:59:09.751Z,8.98
2022-08-21T14:02:00.212Z,6.80
2022-08-21T14:04:37.138Z,11.52
2022-08-21T14:07:16.045Z,9.55
2022-08-21T14:09:45.938Z,8.65
2022-08-21T14:12:23.183Z,10.77
2022-08-21T14:14:51.802Z,6.47
2022-08-21T14:17:35.300Z,7.68
2022-08-21T14:20:03.036Z,9.32
2022-08-21T14:22:37.107Z,6.72
2022-08-21T14:25:08.244Z,10.05
2022-08-21T14:27:40.683Z,6.60
2022-08-21T14:30:17.175Z,8.48
2022-08-21T14:32:46.094Z,12.27
2022-08-21T14:35:13.636Z,10.85
2022-08-21T14:37:44.806Z,10.30
2022-08-21T14:40:13.592Z,7.05
2022-08-21T14:42:44.542Z,6.82
2022-08-21T14:45:27.525Z,9.15
2022-08-21T14:47:55.194Z,8.95
2022-08-21T14:50:22.859Z,5.47
2022-08-21T14:52:50.232Z,7.70
2022-08-21T14:55:19.480Z,5.50
2022-08-21T14:57:51.719Z,10.65
2022-08-21T15:00:27.093Z,7.28
2022-08-21T15:03:03.942Z,5.95
2022-08-21T15:05:33.821Z,8.75
2022-08-21T15:08:01.556Z,7.28
2022-08-21T15:10:28.973Z,7.72
2022-08-21T15:12:56.583Z,7.28
2022-08-21T15:15:23.459Z,8.93
2022-08-21T15:17:50.358Z,8.35
2022-08-21T15:20:17.228Z,9.82
2022-08-21T15:22:47.459Z,8.40
2022-08-21T15:25:15.086Z,13.20
2022-08-21T15:27:42.216Z,8.23
2022-08-21T15:30:10.002Z,7.70
2022-08-21T15:32:36.929Z,13.85
2022-08-21T15:35:04.776Z,11.98
2022-08-21T15:37:31.700Z,7.93
2022-08-21T15:39:58.781Z,9.20
2022-08-21T15:42:30.095Z,8.40
2022-08-21T15:44:58.450Z,15.73
2022-08-21T15:47:35.124Z,10.15
2022-08-21T15:50:03.090Z,11.55
2022-08-21T15:52:29.967Z,12.15
2022-08-21T15:54:56.909Z,9.70
2022-08-21T15:57:25.359Z,8.77
2022-08-21T15:59:55.815Z,9.68
2022-08-21T16:02:27.194Z,9.43
2022-08-21T16:04:54.918Z,13.60
2022-08-21T16:07:21.815Z,15.63
2022-08-21T16:09:48.743Z,11.98
2022-08-21T16:12:25.031Z,14.23
2022-08-21T16:14:54.114Z,9.02
2022-08-21T16:17:25.693Z,14.00
2022-08-21T16:19:52.716Z,12.05
2022-08-21T16:22:19.607Z,12.25
2022-08-21T16:24:46.483Z,11.73
2022-08-21T16:27:14.185Z,10.02
2022-08-21T16:29:41.808Z,9.93
2022-08-21T16:32:09.181Z,9.73
2022-08-21T16:34:36.889Z,10.18
2022-08-21T16:37:04.426Z,10.75
2022-08-21T16:39:31.374Z,10.77
2022-08-21T16:41:58.306Z,12.10
2022-08-21T16:44:25.235Z,9.35
2022-08-21T16:46:57.159Z,14.70
2022-08-21T16:49:23.998Z,10.13
2022-08-21T16:51:50.894Z,14.30
2022-08-21T16:54:17.949Z,10.85
2022-08-21T16:56:47.707Z,8.57
2022-08-21T16:59:15.145Z,11.52
2022-08-21T17:01:45.043Z,12.00
2022-08-21T17:04:12.089Z,15.35
2022-08-21T17:06:39.149Z,10.95
2022-08-21T17:09:06.069Z,11.70
2022-08-21T17:11:38.105Z,10.68
2022-08-21T17:14:12.928Z,9.75
2022-08-21T17:16:44.451Z,12.13
2022-08-21T17:19:13.171Z,8.40
2022-08-21T17:21:40.035Z,8.07
2022-08-21T17:24:07.049Z,13.70
2022-08-21T17:26:34.513Z,8.45
2022-08-21T17:29:01.683Z,7.28
2022-08-21T17:31:29.795Z,11.88
2022-08-21T17:33:56.938Z,9.70
2022-08-21T17:36:26.854Z,9.13
2022-08-21T17:38:53.944Z,8.93
2022-08-21T17:41:21.446Z,10.23
2022-08-21T17:43:48.708Z,10.23
2022-08-21T17:46:21.913Z,8.95
2022-08-21T17:48:48.867Z,12.88
2022-08-21T17:51:17.092Z,8.45
2022-08-21T17:53:45.109Z,8.80
2022-08-21T17:56:15.028Z,10.88
2022-08-21T17:58:49.582Z,11.07
2022-08-21T18:01:17.519Z,9.82
2022-08-21T18:03:47.193Z,8.30
2022-08-21T18:06:17.646Z,7.72
2022-08-21T18:08:45.102Z,10.73
2022-08-21T18:11:18.053Z,7.15
2022-08-21T18:13:52.817Z,10.13
2022-08-21T18:16:20.123Z,11.13
2022-08-21T18:18:49.197Z,11.43
2022-08-21T18:21:16.707Z,9.65
2022-08-21T18:23:44.926Z,10.75
2022-08-21T18:26:15.579Z,15.82
2022-08-21T18:28:44.385Z,12.40
2022-08-21T18:31:13.016Z,9.10
2022-08-21T18:33:55.960Z,10.65
2022-08-21T18:36:27.463Z,8.82
2022-08-21T18:38:56.973Z,8.35
2022-08-21T18:41:32.333Z,9.05
2022-08-21T18:43:59.221Z,9.63
2022-08-21T18:46:26.132Z,8.00
2022-08-21T18:48:52.981Z,8.82
2022-08-21T18:51:19.878Z,7.50
2022-08-21T18:53:50.625Z,7.70
2022-08-21T18:58:50.925Z,6.97
2022-08-21T19:01:17.876Z,13.18
2022-08-21T19:03:45.400Z,7.10
2022-08-21T19:06:12.419Z,6.82
2022-08-21T19:08:39.543Z,7.30
2022-08-21T19:11:07.181Z,5.70
2022-08-21T19:13:35.079Z,11.30
2022-08-21T19:16:05.340Z,9.65
2022-08-21T19:18:38.260Z,7.32
2022-08-21T19:21:06.741Z,7.28
2022-08-21T19:23:35.162Z,6.03
2022-08-21T19:26:03.947Z,9.10
2022-08-21T19:28:41.215Z,10.27
2022-08-21T19:31:27.833Z,8.88
2022-08-21T19:34:04.510Z,13.73
2022-08-21T19:36:32.490Z,8.95
2022-08-21T19:39:00.721Z,10.73
2022-08-21T19:41:31.169Z,11.77
2022-08-21T19:44:02.660Z,9.63
2022-08-21T19:46:33.196Z,8.90
2022-08-21T19:49:04.863Z,8.50
2022-08-21T19:51:34.802Z,7.97
2022-08-21T19:54:01.693Z,8.50
2022-08-21T19:56:31.921Z,8.25
2022-08-21T19:59:03.904Z,7.80
2022-08-21T20:01:33.069Z,8.10
2022-08-21T20:04:00.308Z,11.20
2022-08-21T20:06:27.430Z,9.85
2022-08-21T20:08:56.158Z,9.88
2022-08-21T20:11:31.872Z,6.90
2022-08-21T20:14:00.682Z,10.18
2022-08-21T20:16:28.609Z,7.95
2022-08-21T20:18:56.048Z,6.60
2022-08-21T20:21:23.313Z,8.48
2022-08-21T20:23:50.224Z,12.63
2022-08-21T20:26:18.930Z,8.38
2022-08-21T20:28:46.330Z,9.98
2022-08-21T20:31:19.614Z,11.07
2022-08-21T20:33:49.649Z,9.57
2022-08-21T20:36:17.281Z,9.55
2022-08-21T20:38:44.575Z,7.28
2022-08-21T20:41:17.927Z,11.20
2022-08-21T20:43:57.801Z,10.40
2022-08-21T20:46:27.955Z,9.32
2022-08-21T20:48:55.653Z,12.68
2022-08-21T20:51:37.142Z,8.32
2022-08-21T20:54:26.080Z,9.45
2022-08-21T20:57:13.643Z,11.98
2022-08-21T20:59:53.057Z,9.27
2022-08-21T21:02:54.036Z,14.15
2022-08-21T21:05:52.903Z,8.93
2022-08-21T21:08:35.821Z,7.88
2022-08-21T21:11:16.347Z,9.60
2022-08-21T21:14:00.456Z,6.55
2022-08-21T21:16:36.882Z,11.00
2022-08-21T21:19:37.018Z,8.52
2022-08-21T21:22:19.401Z,9.77
2022-08-21T21:25:14.623Z,8.90
2022-08-21T21:28:17.689Z,8.70
2022-08-21T21:30:47.051Z,9.05
2022-08-21T21:33:24.817Z,10.70
2022-08-21T21:35:59.271Z,8.02
2022-08-21T21:38:51.590Z,8.52
2022-08-21T21:41:36.729Z,8.68
2022-08-21T21:44:42.018Z,7.10
2022-08-21T21:47:23.467Z,6.90
2022-08-21T21:50:18.762Z,7.15
2022-08-21T21:56:13.280Z,6.65
2022-08-21T21:58:52.156Z,7.28
2022-08-21T22:01:27.744Z,7.32
2022-08-21T22:04:17.071Z,7.53
2022-08-21T22:07:32.402Z,9.02
2022-08-21T22:10:20.042Z,7.63
2022-08-21T22:13:26.497Z,11.40
2022-08-21T22:15:54.652Z,8.40
2022-08-21T22:18:29.435Z,9.27
2022-08-21T22:21:05.982Z,8.27
2022-08-21T22:23:40.143Z,11.10
2022-08-21T22:26:11.226Z,8.23
2022-08-21T22:28:41.792Z,12.30
2022-08-21T22:31:28.339Z,8.20
2022-08-21T22:34:14.241Z,12.63
2022-08-21T22:36:57.391Z,9.55
2022-08-21T22:39:43.068Z,8.50
2022-08-21T22:42:28.184Z,9.85
2022-08-21T22:45:12.109Z,9.88
2022-08-21T22:47:41.598Z,10.27
2022-08-21T22:50:26.970Z,8.50
2022-08-21T22:53:09.395Z,8.50
2022-08-21T22:55:43.876Z,9.88
2022-08-21T22:58:30.634Z,8.00
2022-08-21T23:01:19.576Z,9.30
2022-08-21T23:03:52.950Z,10.52
2022-08-21T23:06:43.517Z,10.18
2022-08-21T23:09:21.873Z,10.15
2022-08-21T23:14:36.903Z,15.23
2022-08-21T23:17:22.991Z,14.20
2022-08-21T23:20:10.234Z,11.60
2022-08-21T23:22:55.042Z,10.68
2022-08-21T23:25:45.400Z,13.40
2022-08-21T23:28:27.195Z,14.80
2022-08-21T23:31:17.943Z,9.95
2022-08-21T23:34:19.670Z,10.02
2022-08-21T23:37:23.226Z,11.45
2022-08-21T23:40:11.420Z,14.70
2022-08-21T23:43:02.237Z,10.82
2022-08-21T23:45:56.729Z,10.77
2022-08-21T23:48:51.946Z,9.38
2022-08-21T23:54:42.466Z,11.05
2022-08-21T23:57:38.625Z,13.25
